Time;durP1;ratioP1;P1;durP2;ratioP2;P2;SDS_P1;SDS_P2;PMS_P1;PMS_P2;Temp;Humidity;BMP_temperature;BMP_pressure;BME280_temperature;BME280_humidity;BME280_pressure;Samples;Min_cycle;Max_cycle;Signal;HPM_P1;HPM_P2
2022/02/03 00:00:44;;;;;;;18.15;6.22;;;;;;;7.29;96.88;102144.44;5074794;28;20036;-78
2022/02/03 00:03:19;;;;;;;23.98;6.35;;;;;;;7.30;97.17;102148.81;5074143;28;20036;-78
2022/02/03 00:05:59;;;;;;;24.65;7.78;;;;;;;7.29;96.76;102144.44;5074320;28;20040;-78
2022/02/03 00:16:58;;;;;;;25.98;6.97;;;;;;;7.20;97.24;102142.31;5072913;28;20059;-78
2022/02/03 00:22:17;;;;;;;20.15;8.55;;;;;;;7.22;97.26;102145.72;5073978;28;20060;-78
2022/02/03 00:28:18;;;;;;;24.98;10.10;;;;;;;7.16;97.30;102148.72;5039632;28;20123;-77
2022/02/03 00:49:17;;;;;;;31.52;12.80;;;;;;;7.01;97.85;102122.16;5073316;28;20176;-78
2022/02/03 00:51:50;;;;;;;26.55;12.80;;;;;;;7.02;97.82;102126.50;5073301;28;20077;-78
2022/02/03 00:54:20;;;;;;;33.95;13.30;;;;;;;7.00;97.83;102128.41;5073507;28;20385;-78
2022/02/03 00:57:01;;;;;;;32.08;13.65;;;;;;;6.95;98.28;102119.84;5073221;28;20036;-78
2022/02/03 00:59:37;;;;;;;;;;;;;;;6.95;98.25;102111.06;5074289;28;20035;-78
2022/02/03 01:02:12;;;;;;;32.28;12.52;;;;;;;6.92;98.42;102112.06;5073240;28;19913;-77
2022/02/03 01:04:40;;;;;;;28.92;13.15;;;;;;;6.93;98.54;102113.78;5073329;28;20033;-78
2022/02/03 01:07:17;;;;;;;36.15;14.13;;;;;;;6.89;98.64;102126.31;5073065;28;20029;-78
2022/02/03 01:09:58;;;;;;;35.03;13.68;;;;;;;6.88;98.90;102119.34;5073117;28;20111;-78
2022/02/03 01:12:43;;;;;;;41.42;15.55;;;;;;;6.86;98.99;102115.91;5073506;28;20032;-78
2022/02/03 01:37:13;;;;;;;31.98;12.57;;;;;;;6.78;100.00;102074.94;5076725;28;20036;-77
2022/02/03 01:45:36;;;;;;;32.10;12.80;;;;;;;6.78;99.85;102061.72;5076714;28;20047;-77
2022/02/03 01:53:41;;;;;;;31.88;12.93;;;;;;;6.77;99.29;102065.31;5077209;28;20102;-77
2022/02/03 01:56:19;;;;;;;33.85;12.95;;;;;;;6.78;99.50;102069.66;5076138;28;20060;-78
2022/02/03 01:58:47;;;;;;;32.90;12.20;;;;;;;6.77;99.27;102075.88;5076197;28;20028;-77
2022/02/03 02:01:19;;;;;;;27.55;12.05;;;;;;;6.76;99.26;102069.72;5076376;28;20029;-77
2022/02/03 02:04:06;;;;;;;27.63;12.07;;;;;;;6.79;99.11;102064.28;5076705;28;20033;-77
2022/02/03 02:07:08;;;;;;;35.53;11.68;;;;;;;6.80;98.75;102073.91;5076373;28;20032;-77
2022/02/03 02:10:30;;;;;;;32.17;10.95;;;;;;;6.79;98.54;102068.69;5076724;28;20119;-76
2022/02/03 02:19:00;;;;;;;33.30;10.25;;;;;;;6.77;98.75;102070.59;5076387;28;20413;-78
2022/02/03 02:44:09;;;;;;;27.65;4.82;;;;;;;6.77;96.68;101989.44;5075613;28;20043;-77
2022/02/03 02:46:53;;;;;;;30.73;4.95;;;;;;;6.78;96.57;101985.00;5075848;28;20033;-77
2022/02/03 02:49:25;;;;;;;23.88;4.82;;;;;;;6.79;96.21;101990.22;5075292;28;20036;-77
2022/02/03 02:52:09;;;;;;;24.95;5.20;;;;;;;6.78;96.13;101974.44;5075377;28;20065;-78
2022/02/03 03:36:09;;;;;;;15.35;3.50;;;;;;;6.71;94.08;101882.16;5074277;28;20181;-77
2022/02/03 03:38:36;;;;;;;10.10;3.78;;;;;;;6.74;93.57;101894.38;5074601;28;20075;-78
2022/02/03 03:41:03;;;;;;;12.68;3.47;;;;;;;6.74;93.54;101885.59;5073204;28;20036;-78
2022/02/03 03:43:49;;;;;;;16.23;4.35;;;;;;;6.72;93.81;101885.69;5074622;28;20468;-77
2022/02/03 03:46:29;;;;;;;14.60;3.90;;;;;;;6.69;93.78;101889.34;5060076;28;20045;-78
2022/02/03 03:49:03;;;;;;;10.27;3.53;;;;;;;6.71;93.52;101889.28;5074371;28;20025;-77
2022/02/03 03:51:36;;;;;;;15.35;3.97;;;;;;;6.68;93.74;101895.56;5073550;28;20081;-77
2022/02/03 03:54:07;;;;;;;15.38;4.13;;;;;;;6.65;94.13;101894.91;5074904;28;20024;-76
2022/02/03 03:56:47;;;;;;;12.13;4.05;;;;;;;6.65;93.91;101890.47;5073879;28;20033;-77
2022/02/03 03:59:44;;;;;;;15.00;4.07;;;;;;;6.65;93.73;101890.47;5074904;28;20369;-77
2022/02/03 04:35:09;;;;;;;18.90;4.22;;;;;;;6.62;92.95;101850.13;5073787;28;20388;-77
2022/02/03 04:59:11;;;;;;;11.25;4.72;;;;;;;6.44;94.13;101839.66;5073513;28;20040;-77
2022/02/03 05:07:31;;;;;;;17.00;4.47;;;;;;;6.43;93.85;101823.88;5073754;28;20049;-77
2022/02/03 05:13:58;;;;;;;13.50;4.47;;;;;;;6.37;94.08;101808.38;5073024;28;20476;-76
2022/02/03 05:20:34;;;;;;;16.58;4.13;;;;;;;6.27;94.35;101805.41;5072430;28;20129;-76
2022/02/03 05:23:16;;;;;;;12.95;3.88;;;;;;;6.25;94.24;101802.84;5069616;28;20037;-76
2022/02/03 05:26:05;;;;;;;13.25;4.65;;;;;;;6.25;94.21;101789.63;5073124;28;20036;-79
2022/02/03 05:32:11;;;;;;;13.93;4.53;;;;;;;6.27;93.89;101785.13;5073032;28;20075;-77
2022/02/03 05:46:15;;;;;;;13.50;3.90;;;;;;;6.29;93.78;101763.91;5072197;28;20045;-77
2022/02/03 05:49:02;;;;;;;12.95;4.32;;;;;;;6.31;93.19;101757.56;5072892;28;20124;-77
2022/02/03 05:52:15;;;;;;;10.23;4.13;;;;;;;6.31;93.07;101754.91;5073393;28;20032;-77
2022/02/03 06:03:03;;;;;;;11.85;3.40;;;;;;;6.26;93.19;101743.78;5072242;28;20043;-76
2022/02/03 06:05:56;;;;;;;8.95;3.40;;;;;;;6.27;93.00;101739.31;5072895;28;20032;-76
2022/02/03 06:14:26;;;;;;;12.68;3.75;;;;;;;6.27;93.04;101737.56;5072848;28;20039;-74
2022/02/03 06:24:47;;;;;;;15.30;4.47;;;;;;;6.28;92.92;101726.03;5076788;28;20396;-76
2022/02/03 06:27:29;;;;;;;11.65;4.10;;;;;;;6.26;92.93;101714.69;5076512;28;20029;-75
2022/02/03 06:29:58;;;;;;;11.32;4.82;;;;;;;6.23;93.10;101716.69;5076634;28;20040;-77
2022/02/03 06:32:25;;;;;;;11.88;4.50;;;;;;;6.18;93.69;101704.56;5075980;28;20033;-77
2022/02/03 06:34:51;;;;;;;12.35;5.13;;;;;;;6.19;93.56;101697.50;5075773;28;20026;-77
2022/02/03 06:37:19;;;;;;;12.90;4.65;;;;;;;6.21;93.14;101686.84;5076074;28;20070;-80
2022/02/03 06:39:44;;;;;;;13.52;3.92;;;;;;;6.21;93.24;101685.06;5076049;28;20028;-79
2022/02/03 06:42:10;;;;;;;14.20;3.95;;;;;;;6.17;92.98;101675.59;5075997;28;20086;-80
2022/02/03 06:44:43;;;;;;;9.57;4.72;;;;;;;6.18;93.01;101674.66;5076311;28;20036;-79
2022/02/03 06:47:19;;;;;;;15.45;4.90;;;;;;;6.15;93.21;101672.19;5075082;28;20083;-76
2022/02/03 06:52:28;;;;;;;13.07;4.53;;;;;;;6.12;93.43;101682.94;5058335;28;20060;-76
2022/02/03 06:55:03;;;;;;;9.07;4.35;;;;;;;6.14;93.07;101683.72;5074350;28;20066;-78
2022/02/03 06:57:42;;;;;;;11.30;4.07;;;;;;;6.10;93.08;101679.53;5075104;28;20036;-78
2022/02/03 07:00:17;;;;;;;12.38;4.18;;;;;;;6.12;93.42;101691.72;5075281;28;20115;-78
2022/02/03 07:02:45;;;;;;;13.70;4.22;;;;;;;6.13;92.92;101687.28;5074823;28;20028;-76
2022/02/03 07:05:10;;;;;;;9.57;4.45;;;;;;;6.10;93.38;101696.22;5073753;28;20028;-76
2022/02/03 07:07:41;;;;;;;13.32;4.20;;;;;;;6.10;93.07;101698.88;5073467;28;20112;-77
2022/02/03 07:10:09;;;;;;;14.35;4.55;;;;;;;6.13;92.69;101687.28;5074322;28;20040;-76
2022/02/03 07:12:34;;;;;;;18.83;4.97;;;;;;;6.11;92.78;101692.66;5074630;28;20037;-76
2022/02/03 07:15:02;;;;;;;15.05;5.18;;;;;;;6.10;92.98;101692.75;5075041;28;20052;-76
2022/02/03 07:17:27;;;;;;;12.20;4.88;;;;;;;6.09;92.65;101686.63;5074489;28;20115;-76
2022/02/03 07:19:59;;;;;;;13.30;5.18;;;;;;;6.05;93.16;101676.31;5074928;28;20113;-75
2022/02/03 07:22:25;;;;;;;12.68;5.93;;;;;;;6.04;93.21;101675.44;5074415;28;20051;-75
2022/02/03 07:24:51;;;;;;;11.30;5.50;;;;;;;6.04;92.94;101667.53;5074292;28;20028;-75
2022/02/03 07:27:17;;;;;;;15.02;5.30;;;;;;;6.00;93.34;101661.59;5074441;28;20115;-75
2022/02/03 07:29:42;;;;;;;18.73;6.20;;;;;;;6.00;93.39;101663.34;5074418;28;20174;-75
2022/02/03 07:32:08;;;;;;;18.63;6.38;;;;;;;5.99;93.53;101656.38;5073237;28;20107;-77
2022/02/03 07:34:34;;;;;;;17.48;6.50;;;;;;;5.97;93.61;101639.75;5074260;28;20032;-76
2022/02/03 07:36:59;;;;;;;23.20;6.93;;;;;;;5.96;93.69;101654.72;5072903;28;20040;-75
2022/02/03 07:39:25;;;;;;;23.88;6.65;;;;;;;5.96;93.96;101660.03;5074318;28;20358;-77
2022/02/03 07:41:50;;;;;;;15.07;6.20;;;;;;;5.97;93.93;101672.34;5072906;28;20059;-76
2022/02/03 07:44:16;;;;;;;11.02;6.25;;;;;;;5.96;94.01;101667.94;5074480;28;20029;-77
2022/02/03 07:46:42;;;;;;;18.80;7.43;;;;;;;5.98;94.15;101667.88;5072859;28;20048;-77
2022/02/03 07:49:08;;;;;;;20.52;7.78;;;;;;;6.04;93.66;101669.31;5074361;28;20064;-76
2022/02/03 07:51:33;;;;;;;16.80;8.23;;;;;;;6.03;93.73;101657.06;5074059;28;20419;-75
2022/02/03 07:53:59;;;;;;;14.43;7.43;;;;;;;6.04;94.04;101659.59;5073939;28;20039;-73
2022/02/03 07:56:24;;;;;;;16.38;8.50;;;;;;;6.07;93.79;101661.22;5073873;28;20047;-74
2022/02/03 07:58:50;;;;;;;19.15;8.35;;;;;;;6.06;93.94;101660.38;5073974;28;20052;-76
2022/02/03 08:01:15;;;;;;;14.48;7.95;;;;;;;6.06;94.19;101662.16;5073467;28;20033;-75
2022/02/03 08:03:43;;;;;;;16.45;7.97;;;;;;;6.04;94.18;101656.13;5073553;28;20397;-75
2022/02/03 08:06:14;;;;;;;19.90;8.07;;;;;;;6.04;94.45;101656.13;5072419;28;20510;-76
2022/02/03 08:08:50;;;;;;;20.55;8.07;;;;;;;6.03;95.00;101664.97;5074010;28;20045;-75
2022/02/03 08:11:22;;;;;;;12.60;7.45;;;;;;;6.04;95.27;101658.75;5073550;28;20098;-76
2022/02/03 08:14:07;;;;;;;11.25;7.18;;;;;;;6.02;95.64;101655.34;5073359;28;20037;-78
2022/02/03 08:16:46;;;;;;;14.95;7.75;;;;;;;5.95;96.61;101660.09;5072413;28;20080;-79
2022/02/03 08:19:18;;;;;;;16.02;7.60;;;;;;;5.86;97.61;101658.00;5074119;28;20082;-78
2022/02/03 08:21:49;;;;;;;11.95;7.00;;;;;;;5.79;98.60;101649.56;5074229;28;20029;-75
2022/02/03 08:24:26;;;;;;;9.05;7.10;;;;;;;5.70;100.00;101645.66;5074208;28;20127;-77
2022/02/03 08:32:21;;;;;;;11.05;8.00;;;;;;;5.56;100.00;101621.84;5073341;28;20044;-76
2022/02/03 08:37:13;;;;;;;11.80;9.25;;;;;;;5.49;100.00;101621.34;5073169;28;20036;-75
2022/02/03 08:39:51;;;;;;;15.63;10.25;;;;;;;5.48;100.00;101609.94;5073060;28;20032;-75
2022/02/03 08:42:17;;;;;;;14.18;10.50;;;;;;;5.49;100.00;101616.06;5073358;28;20039;-73
2022/02/03 08:44:42;;;;;;;12.32;10.30;;;;;;;5.49;100.00;101616.06;5073133;28;20024;-74
2022/02/03 08:47:08;;;;;;;16.30;11.30;;;;;;;5.50;100.00;101620.41;5073789;28;20024;-77
2022/02/03 08:49:36;;;;;;;19.83;12.10;;;;;;;5.48;100.00;101625.78;5073654;28;20417;-74
2022/02/03 08:52:07;;;;;;;20.45;12.27;;;;;;;5.50;100.00;101622.22;5073248;28;20032;-75
2022/02/03 08:54:36;;;;;;;20.85;12.95;;;;;;;5.47;100.00;101621.44;5073077;28;20127;-75
2022/02/03 08:57:11;;;;;;;22.33;13.63;;;;;;;5.47;100.00;101625.88;5073187;28;20032;-75
2022/02/03 09:00:19;;;;;;;22.17;13.18;;;;;;;5.48;100.00;101625.78;5073612;28;20063;-75
2022/02/03 09:35:25;;;;;;;16.00;11.05;;;;;;;5.39;100.00;101636.00;5072716;28;20044;-74
2022/02/03 09:41:04;;;;;;;15.35;10.15;;;;;;;5.38;100.00;101632.50;5072858;28;20036;-72
2022/02/03 09:54:17;;;;;;;14.30;9.77;;;;;;;5.40;100.00;101619.22;5072284;28;20461;-74
2022/02/03 09:56:53;;;;;;;11.68;8.43;;;;;;;5.48;100.00;101614.38;5076086;28;20048;-74
2022/02/03 09:59:20;;;;;;;12.20;8.35;;;;;;;5.50;100.00;101609.00;5076921;28;20051;-74
2022/02/03 10:01:53;;;;;;;15.85;8.93;;;;;;;5.45;100.00;101602.19;5075944;28;20032;-73
2022/02/03 10:04:43;;;;;;;11.63;8.27;;;;;;;5.44;100.00;101605.75;5076415;28;20021;-71
2022/02/03 10:07:16;;;;;;;17.10;9.10;;;;;;;5.43;100.00;101605.84;5075613;28;20503;-74
2022/02/03 10:09:42;;;;;;;13.27;9.50;;;;;;;5.40;100.00;101601.59;5076345;28;20032;-75
2022/02/03 10:12:10;;;;;;;16.88;9.15;;;;;;;5.44;100.00;101604.94;5076232;28;20103;-75
2022/02/03 10:14:45;;;;;;;15.30;9.35;;;;;;;5.45;100.00;101614.56;5075784;28;20056;-75
2022/02/03 10:17:11;;;;;;;16.95;9.73;;;;;;;5.45;100.00;101610.13;5076714;28;20036;-74
2022/02/03 10:19:40;;;;;;;16.98;9.63;;;;;;;5.45;100.00;101601.34;5075891;28;20033;-76
2022/02/03 10:22:17;;;;;;;18.20;9.75;;;;;;;5.48;100.00;101598.53;5074723;28;20460;-77
2022/02/03 10:24:47;;;;;;;15.80;9.13;;;;;;;5.48;100.00;101594.09;5076208;28;20066;-75
2022/02/03 10:27:35;;;;;;;15.50;9.80;;;;;;;5.47;100.00;101586.28;5075802;28;20033;-76
2022/02/03 10:30:25;;;;;;;20.38;9.50;;;;;;;5.47;100.00;101581.00;5075830;28;20135;-75
2022/02/03 10:32:52;;;;;;;21.83;10.35;;;;;;;5.48;100.00;101585.34;5075642;28;20089;-74
2022/02/03 10:35:21;;;;;;;17.85;9.38;;;;;;;5.48;100.00;101585.34;5074457;28;20341;-74
2022/02/03 10:38:05;;;;;;;17.25;9.75;;;;;;;5.44;100.00;101581.16;5076230;28;20078;-73
2022/02/03 10:41:12;;;;;;;16.73;9.27;;;;;;;5.45;100.00;101586.34;5075719;28;20093;-75
2022/02/03 10:55:41;;;;;;;17.20;9.45;;;;;;;5.46;100.00;101571.34;5075319;28;20047;-75
2022/02/03 11:08:18;;;;;;;19.33;10.25;;;;;;;5.59;100.00;101545.97;5074500;28;20029;-76
2022/02/03 11:10:50;;;;;;;21.63;10.90;;;;;;;5.63;100.00;101544.00;5075028;28;20028;-75
2022/02/03 11:13:17;;;;;;;21.83;10.80;;;;;;;5.68;100.00;101543.72;5074888;28;20117;-77
2022/02/03 11:15:43;;;;;;;23.08;11.43;;;;;;;5.71;100.00;101533.81;5075874;28;20510;-77
2022/02/03 11:18:08;;;;;;;22.98;11.80;;;;;;;5.75;100.00;101523.94;5073799;28;20032;-77
2022/02/03 11:20:39;;;;;;;22.20;10.93;;;;;;;5.81;100.00;101518.31;5074747;28;20032;-76
2022/02/03 11:23:33;;;;;;;27.95;11.50;;;;;;;5.90;100.00;101525.66;5074565;28;20128;-76
2022/02/03 11:43:19;;;;;;;16.17;9.68;;;;;;;6.14;100.00;101507.50;5074366;28;20437;-74
2022/02/03 11:45:54;;;;;;;16.65;9.90;;;;;;;6.10;99.97;101507.78;5060934;28;20053;-75
2022/02/03 11:59:37;;;;;;;16.08;10.27;;;;;;;6.07;100.00;101498.25;5074321;28;20445;-76
2022/02/03 12:04:36;;;;;;;16.95;10.55;;;;;;;6.03;100.00;101496.75;5074215;28;20376;-75
2022/02/03 12:07:51;;;;;;;21.45;9.80;;;;;;;6.04;100.00;101490.50;5073864;28;20052;-76
2022/02/03 12:18:15;;;;;;;14.93;9.57;;;;;;;6.00;100.00;101476.66;5073245;28;20076;-76
2022/02/03 12:26:26;;;;;;;13.80;8.80;;;;;;;6.31;100.00;101469.44;5073507;28;20123;-76
2022/02/03 12:29:04;;;;;;;;;;;;;;;6.42;100.00;101463.50;5074143;28;20029;-74
2022/02/03 12:39:41;;;;;;;11.77;8.02;;;;;;;6.58;97.92;101458.09;5073213;28;20503;-73
2022/02/03 12:42:18;;;;;;;14.38;8.20;;;;;;;6.55;97.13;101463.56;5073664;28;20043;-74
2022/02/03 12:44:44;;;;;;;16.88;8.25;;;;;;;6.46;96.91;101458.88;5073681;28;20036;-75
2022/02/03 12:47:12;;;;;;;14.00;8.05;;;;;;;6.29;97.03;101460.78;5073880;28;20115;-73
2022/02/03 12:49:38;;;;;;;16.58;8.80;;;;;;;6.16;97.88;101465.97;5072860;28;20403;-77
2022/02/03 12:52:25;;;;;;;14.02;9.30;;;;;;;6.07;98.62;101453.34;5072592;28;20031;-75
2022/02/03 12:54:50;;;;;;;14.65;8.20;;;;;;;5.98;99.48;101451.28;5073956;28;20107;-72
2022/02/03 12:57:27;;;;;;;15.77;9.13;;;;;;;5.90;100.00;101449.06;5073827;28;20111;-73
2022/02/03 13:00:30;;;;;;;13.15;8.77;;;;;;;5.83;100.00;101440.66;5074126;28;20090;-72
2022/02/03 13:02:59;;;;;;;17.08;9.43;;;;;;;5.79;100.00;101444.44;5060220;28;20072;-77
2022/02/03 13:05:30;;;;;;;18.35;9.73;;;;;;;5.75;100.00;101440.28;5073353;28;20033;-71
2022/02/03 13:07:58;;;;;;;16.38;9.48;;;;;;;5.74;100.00;101440.38;5073372;28;20179;-73
2022/02/03 13:10:29;;;;;;;15.85;9.80;;;;;;;5.69;100.00;101434.50;5073299;28;20039;-74
2022/02/03 13:13:08;;;;;;;16.38;9.95;;;;;;;5.67;100.00;101431.13;5073227;28;20415;-73
2022/02/03 13:15:39;;;;;;;16.67;10.32;;;;;;;5.67;100.00;101428.50;5073257;28;20055;-73
2022/02/03 13:18:10;;;;;;;16.25;9.98;;;;;;;5.68;100.00;101427.56;5073851;28;20024;-75
2022/02/03 13:20:42;;;;;;;15.30;9.40;;;;;;;5.69;100.00;101423.94;5073385;28;20081;-73
2022/02/03 13:23:13;;;;;;;15.77;9.70;;;;;;;5.69;100.00;101419.53;5072838;28;20029;-73
2022/02/03 13:29:02;;;;;;;15.17;9.37;;;;;;;5.67;100.00;101410.84;5010980;28;20061;-73
2022/02/03 13:31:44;;;;;;;19.10;10.73;;;;;;;5.72;100.00;101414.06;5073329;28;20669;-73
2022/02/03 13:34:27;;;;;;;17.98;9.77;;;;;;;5.78;100.00;101407.56;5076983;28;20060;-75
2022/02/03 13:37:00;;;;;;;19.55;10.02;;;;;;;5.80;100.00;101406.50;5076379;28;20029;-74
2022/02/03 13:39:28;;;;;;;17.80;10.40;;;;;;;5.88;100.00;101408.72;5076968;28;20033;-73
2022/02/03 13:42:10;;;;;;;14.52;9.57;;;;;;;5.87;100.00;101401.72;5077393;28;20043;-73
2022/02/03 13:44:36;;;;;;;17.48;10.32;;;;;;;5.89;100.00;101398.97;5076403;28;20040;-73
2022/02/03 13:47:19;;;;;;;18.23;9.20;;;;;;;5.86;100.00;101412.38;5076809;28;20035;-73
2022/02/03 13:49:44;;;;;;;25.05;10.00;;;;;;;5.83;100.00;101393.13;5076702;28;20107;-73
2022/02/03 13:52:15;;;;;;;20.83;9.35;;;;;;;5.86;100.00;101393.91;5075931;28;20116;-73
2022/02/03 13:55:08;;;;;;;18.27;9.85;;;;;;;5.90;100.00;101400.69;5077242;28;20032;-73
2022/02/03 14:12:47;;;;;;;19.77;9.70;;;;;;;6.04;100.00;101384.84;5076801;28;20082;-74
2022/02/03 14:20:25;;;;;;;17.65;8.93;;;;;;;6.29;100.00;101372.72;5014086;28;20072;-74
2022/02/03 14:28:04;;;;;;;20.60;9.10;;;;;;;6.66;99.03;101360.59;5076775;28;20073;-74
2022/02/03 14:30:29;;;;;;;20.52;8.60;;;;;;;6.67;98.18;101351.75;5076430;28;20048;-73
2022/02/03 14:32:58;;;;;;;21.73;8.35;;;;;;;6.68;97.97;101348.13;5076006;28;20117;-72
2022/02/03 14:35:24;;;;;;;20.95;9.05;;;;;;;6.71;97.72;101358.50;5075820;28;20060;-74
2022/02/03 14:38:02;;;;;;;18.55;8.40;;;;;;;6.70;97.86;101364.75;5077010;28;20044;-79
2022/02/03 14:42:53;;;;;;;21.08;8.75;;;;;;;6.66;97.44;101367.72;5076317;28;20041;-78
2022/02/03 14:45:18;;;;;;;20.92;8.18;;;;;;;6.61;97.27;101362.69;5074638;28;20442;-80
2022/02/03 14:47:44;;;;;;;14.43;7.55;;;;;;;6.59;98.26;101361.13;5075747;28;20029;-79
2022/02/03 14:50:11;;;;;;;13.32;7.00;;;;;;;6.59;98.41;101363.75;5074859;28;20107;-77
2022/02/03 14:58:16;;;;;;;15.82;6.53;;;;;;;6.51;97.77;101351.06;5076333;28;20040;-79
2022/02/03 15:00:45;;;;;;;15.73;6.88;;;;;;;6.48;98.04;101351.25;5076669;28;20047;-78
2022/02/03 15:03:11;;;;;;;20.60;7.10;;;;;;;6.45;98.23;101341.72;5075911;28;20111;-78
2022/02/03 15:05:38;;;;;;;17.17;7.20;;;;;;;6.39;98.29;101336.84;5075291;28;20116;-76
2022/02/03 15:08:07;;;;;;;18.48;6.90;;;;;;;6.33;98.42;101337.22;5075640;28;20104;-77
2022/02/03 15:15:57;;;;;;;18.08;6.07;;;;;;;6.27;99.13;101334.97;5077541;28;20060;-77
2022/02/03 15:18:23;;;;;;;15.00;6.60;;;;;;;6.27;99.25;101340.25;5076303;28;20033;-77
2022/02/03 15:20:48;;;;;;;16.13;6.45;;;;;;;6.22;99.27;101345.84;5075224;28;20107;-77
2022/02/03 15:23:14;;;;;;;20.98;6.60;;;;;;;6.21;99.54;101353.84;5075430;28;20112;-78
2022/02/03 15:25:39;;;;;;;15.48;6.38;;;;;;;6.23;99.18;101349.34;5075186;28;20090;-77
2022/02/03 15:28:05;;;;;;;20.08;6.60;;;;;;;6.20;99.26;101347.75;5074554;28;20024;-78
2022/02/03 15:30:30;;;;;;;17.33;6.50;;;;;;;6.16;99.43;101336.50;5074594;28;20037;-77
2022/02/03 15:32:56;;;;;;;18.17;6.80;;;;;;;6.14;99.63;101334.91;5074517;28;20123;-77
2022/02/03 15:37:48;;;;;;;16.67;6.68;;;;;;;6.09;100.00;101327.28;5074607;28;20036;-78
2022/02/03 15:40:19;;;;;;;16.15;6.78;;;;;;;6.09;100.00;101337.84;5074050;28;20055;-78
2022/02/03 15:42:54;;;;;;;21.23;6.80;;;;;;;6.12;100.00;101337.66;5074816;28;20161;-79
2022/02/03 15:45:19;;;;;;;16.23;6.78;;;;;;;6.10;100.00;101333.41;5074334;28;20274;-76
2022/02/03 15:47:54;;;;;;;14.95;6.47;;;;;;;6.10;100.00;101343.97;5074180;28;20028;-79
2022/02/03 16:03:38;;;;;;;17.77;6.00;;;;;;;6.04;100.00;101332.00;5074133;28;20040;-79
2022/02/03 16:15:23;;;;;;;16.10;5.90;;;;;;;6.01;100.00;101337.47;5073963;28;20428;-79
2022/02/03 16:17:17;;;;;;;23.60;6.25;;;;;;;5.99;100.00;101334.09;5073201;28;20481;-77
2022/02/03 16:22:28;;;;;;;14.63;6.00;;;;;;;5.95;100.00;101340.47;5074502;28;20037;-80
2022/02/03 16:25:36;;;;;;;14.45;5.60;;;;;;;5.94;100.00;101323.81;5073815;28;20036;-78
2022/02/03 16:54:40;;;;;;;14.15;5.50;;;;;;;5.90;100.00;101318.81;5072941;28;20043;-79
2022/02/03 16:57:13;;;;;;;17.58;5.68;;;;;;;5.91;100.00;101320.50;5072689;28;20039;-79
2022/02/03 16:59:46;;;;;;;16.48;5.95;;;;;;;5.89;100.00;101317.94;5072762;28;20429;-75
2022/02/03 17:02:12;;;;;;;14.57;5.80;;;;;;;5.86;100.00;101317.31;5073241;28;20110;-80
2022/02/03 17:04:38;;;;;;;13.85;4.97;;;;;;;5.86;100.00;101315.50;5072669;28;20433;-76
2022/02/03 17:07:03;;;;;;;13.05;5.50;;;;;;;5.84;100.00;101320.03;5072873;28;20404;-78
2022/02/03 17:09:29;;;;;;;11.35;4.82;;;;;;;5.82;100.00;101321.91;5072043;28;20472;-78
2022/02/03 17:11:54;;;;;;;11.02;5.00;;;;;;;5.85;100.00;101315.59;5073116;28;20117;-80
2022/02/03 17:14:19;;;;;;;14.85;4.88;;;;;;;5.82;100.00;101319.28;5073805;28;20368;-80
2022/02/03 17:16:45;;;;;;;9.95;4.57;;;;;;;5.79;100.00;101319.47;5086017;28;20206;-79
2022/02/03 17:19:10;;;;;;;15.50;5.13;;;;;;;5.80;100.00;101308.81;5082596;28;20053;-77
2022/02/03 17:21:36;;;;;;;9.15;4.50;;;;;;;5.81;100.00;101313.16;5082412;28;20055;-78
2022/02/03 17:24:02;;;;;;;14.25;4.75;;;;;;;5.80;100.00;101314.09;5058613;28;20056;-79
2022/02/03 17:26:50;;;;;;;11.60;4.43;;;;;;;5.80;100.00;101315.88;5072566;28;20511;-77
2022/02/03 17:29:23;;;;;;;12.73;4.85;;;;;;;5.76;100.00;101312.59;5072996;28;20428;-78
2022/02/03 17:32:14;;;;;;;15.75;4.90;;;;;;;5.76;100.00;101320.53;5072592;28;20041;-79
2022/02/03 18:05:25;;;;;;;12.25;4.60;;;;;;;5.82;100.00;101333.34;5072072;28;20129;-80
2022/02/03 18:10:01;;;;;;;8.13;4.18;;;;;;;5.81;100.00;101322.88;5072414;28;20045;-78
2022/02/03 18:26:04;;;;;;;11.80;3.20;;;;;;;5.86;100.00;101336.63;5075015;28;20055;-77
2022/02/03 18:31:18;;;;;;;11.50;4.05;;;;;;;5.82;100.00;101335.97;5075626;28;20078;-77
2022/02/03 18:50:31;;;;;;;12.27;3.63;;;;;;;5.90;100.00;101334.66;5075136;28;20078;-76
2022/02/03 18:55:42;;;;;;;11.75;4.15;;;;;;;5.88;100.00;101320.69;5075032;28;20060;-79
2022/02/03 18:58:32;;;;;;;11.57;3.95;;;;;;;5.87;100.00;101316.34;5075488;28;20033;-77
2022/02/03 19:12:43;;;;;;;10.82;3.33;;;;;;;5.85;100.00;101308.50;5075599;28;20116;-77
2022/02/03 20:06:16;;;;;;;9.88;2.45;;;;;;;5.05;99.40;101305.53;5073533;28;20051;-76
2022/02/03 20:08:49;;;;;;;6.78;2.33;;;;;;;5.10;99.50;101301.66;5073693;28;20033;-77
2022/02/03 20:11:17;;;;;;;6.68;2.60;;;;;;;5.20;99.82;101298.47;5073605;28;20490;-78
2022/02/03 20:13:43;;;;;;;6.90;2.25;;;;;;;5.28;99.33;101306.75;5072047;28;20036;-78
2022/02/03 20:16:09;;;;;;;8.43;2.17;;;;;;;5.38;99.18;101307.91;5073629;28;20052;-78
2022/02/03 20:18:34;;;;;;;10.70;2.47;;;;;;;5.45;98.68;101308.38;5073200;28;20033;-78
2022/02/03 20:21:00;;;;;;;7.82;2.80;;;;;;;5.53;98.20;101318.47;5071618;28;20032;-78
2022/02/03 20:23:25;;;;;;;9.30;2.55;;;;;;;5.55;97.45;101313.94;5073590;28;20041;-79
2022/02/03 20:25:57;;;;;;;9.57;2.92;;;;;;;5.54;97.13;101305.16;5073575;28;20044;-77
2022/02/03 20:28:24;;;;;;;13.38;2.63;;;;;;;5.57;96.95;101304.09;5073298;28;20029;-78
2022/02/03 20:30:50;;;;;;;8.10;2.03;;;;;;;5.62;97.01;101302.88;5073301;28;20051;-76
2022/02/03 20:33:15;;;;;;;3.72;1.80;;;;;;;5.66;96.73;101295.63;5073174;28;20064;-77
2022/02/03 20:35:41;;;;;;;8.85;2.80;;;;;;;5.67;96.60;101297.31;5072887;28;20025;-77
2022/02/03 20:38:07;;;;;;;7.95;2.10;;;;;;;5.67;96.46;101305.22;5073115;28;20086;-78
2022/02/03 20:40:32;;;;;;;8.90;1.92;;;;;;;5.71;96.31;101293.53;5072768;28;20456;-77
2022/02/03 20:42:58;;;;;;;6.80;2.00;;;;;;;5.73;96.06;101296.97;5072852;28;20419;-78
2022/02/03 20:45:23;;;;;;;8.68;2.40;;;;;;;5.75;96.17;101296.84;5072681;28;20024;-77
2022/02/03 20:47:50;;;;;;;8.10;2.38;;;;;;;5.76;95.90;101287.97;5073177;28;20067;-78
2022/02/03 20:50:20;;;;;;;9.88;2.80;;;;;;;5.77;95.69;101294.97;5073064;28;20056;-78
2022/02/03 20:52:45;;;;;;;6.97;2.78;;;;;;;5.82;95.21;101285.81;5071525;28;20396;-79
2022/02/03 20:55:11;;;;;;;6.20;2.10;;;;;;;5.89;94.26;101288.06;5072442;28;20032;-78
2022/02/03 20:57:37;;;;;;;6.47;2.47;;;;;;;5.90;94.23;101277.38;5072704;28;20043;-77
2022/02/03 21:00:26;;;;;;;9.32;3.08;;;;;;;5.91;93.75;101276.47;5072611;28;20047;-72
2022/02/03 21:05:20;;;;;;;8.82;3.22;;;;;;;5.86;93.94;101278.53;5073297;28;20070;-78
2022/02/03 21:07:48;;;;;;;7.32;2.30;;;;;;;5.84;93.63;101275.16;5071418;28;20333;-77
2022/02/03 21:10:18;;;;;;;9.20;2.25;;;;;;;5.88;93.20;101271.38;5072556;28;20095;-76
2022/02/03 21:12:45;;;;;;;6.47;2.05;;;;;;;5.92;92.75;101278.13;5072431;28;20044;-77
2022/02/03 21:15:12;;;;;;;8.73;2.95;;;;;;;5.91;92.76;101275.59;5071232;28;20134;-76
2022/02/03 21:17:38;;;;;;;6.03;2.00;;;;;;;5.94;92.42;101273.63;5071718;28;20111;-76
2022/02/03 21:20:13;;;;;;;7.78;2.40;;;;;;;5.95;91.86;101277.09;5071626;28;20060;-77
2022/02/03 21:22:39;;;;;;;5.40;1.60;;;;;;;5.96;91.30;101271.72;5071727;28;20037;-77
2022/02/03 21:25:17;;;;;;;4.25;1.92;;;;;;;6.03;90.77;101272.22;5071410;28;20040;-76
2022/02/03 21:27:44;;;;;;;6.15;2.20;;;;;;;6.08;89.87;101280.66;5070746;28;20039;-76
2022/02/03 21:30:10;;;;;;;9.32;1.90;;;;;;;6.10;89.74;101273.47;5071564;28;20052;-77
2022/02/03 21:32:37;;;;;;;5.53;2.08;;;;;;;6.08;90.23;101269.28;5071562;28;20456;-77
2022/02/03 21:35:04;;;;;;;9.18;2.33;;;;;;;6.03;90.88;101271.34;5071363;28;20028;-75
2022/02/03 21:37:31;;;;;;;7.13;2.47;;;;;;;5.98;91.57;101272.47;5071906;28;20032;-75
2022/02/03 21:39:56;;;;;;;6.88;2.33;;;;;;;5.96;92.17;101268.22;5071578;28;20050;-76
2022/02/03 21:42:22;;;;;;;5.57;2.60;;;;;;;5.95;91.99;101266.53;5071765;28;20115;-75
2022/02/03 21:44:47;;;;;;;9.02;2.83;;;;;;;5.95;92.24;101262.06;5071635;28;20028;-76
2022/02/03 21:47:12;;;;;;;4.30;2.40;;;;;;;5.93;92.34;101263.16;5072014;28;20056;-76